createdAt,value
2018-09-26T00:02:40.652Z,10.10
2018-09-26T00:04:47.861Z,10.00
2018-09-26T00:06:52.056Z,10.00
2018-09-26T00:08:57.740Z,10.00
2018-09-26T00:11:01.762Z,10.00
2018-09-26T00:13:05.935Z,10.00
2018-09-26T00:15:12.851Z,9.80
2018-09-26T00:17:18.388Z,9.70
2018-09-26T00:19:23.173Z,9.70
2018-09-26T00:21:28.387Z,9.90
2018-09-26T00:23:33.410Z,10.00
2018-09-26T00:25:37.803Z,9.90
2018-09-26T00:27:42.828Z,9.90
2018-09-26T00:29:47.780Z,9.80
2018-09-26T00:31:51.764Z,9.70
2018-09-26T00:33:58.182Z,9.70
2018-09-26T00:36:02.397Z,9.80
2018-09-26T00:38:06.278Z,9.70
2018-09-26T00:40:10.543Z,9.70
2018-09-26T00:42:15.488Z,9.60
2018-09-26T00:44:19.556Z,9.60
2018-09-26T00:46:23.524Z,9.50
2018-09-26T00:48:27.471Z,9.50
2018-09-26T00:50:31.449Z,9.50
2018-09-26T00:52:35.748Z,9.50
2018-09-26T00:54:39.716Z,9.40
2018-09-26T00:56:43.695Z,9.30
2018-09-26T00:58:47.659Z,9.20
2018-09-26T01:00:51.655Z,9.10
2018-09-26T01:02:56.552Z,9.10
2018-09-26T01:05:00.842Z,9.10
2018-09-26T01:07:04.872Z,9.20
2018-09-26T01:09:10.309Z,9.20
2018-09-26T01:11:14.244Z,9.10
2018-09-26T01:13:18.225Z,9.10
2018-09-26T01:15:25.216Z,9.20
2018-09-26T01:17:29.202Z,9.20
2018-09-26T01:19:33.247Z,9.20
2018-09-26T01:21:37.669Z,9.20
2018-09-26T01:23:41.621Z,9.20
2018-09-26T01:25:45.638Z,9.10
2018-09-26T01:27:49.914Z,9.10
2018-09-26T01:29:53.948Z,9.10
2018-09-26T01:31:57.997Z,9.10
2018-09-26T01:34:02.319Z,9.00
2018-09-26T01:36:06.291Z,9.00
2018-09-26T01:38:10.308Z,9.00
2018-09-26T01:40:18.724Z,8.90
2018-09-26T01:42:22.633Z,8.90
2018-09-26T01:44:26.601Z,8.90
2018-09-26T01:46:30.939Z,8.90
2018-09-26T01:48:34.959Z,8.80
2018-09-26T01:50:38.903Z,8.80
2018-09-26T01:52:43.472Z,8.80
2018-09-26T01:54:48.012Z,8.70
2018-09-26T01:56:52.272Z,8.70
2018-09-26T01:58:57.276Z,8.70
2018-09-26T02:01:01.969Z,8.70
2018-09-26T02:03:06.937Z,8.70
2018-09-26T02:05:12.362Z,8.70
2018-09-26T02:07:16.949Z,8.60
2018-09-26T02:09:21.009Z,8.70
2018-09-26T02:11:25.115Z,8.60
2018-09-26T02:13:29.133Z,8.60
2018-09-26T02:15:33.136Z,8.60
2018-09-26T02:17:37.466Z,8.60
2018-09-26T02:19:41.460Z,8.70
2018-09-26T02:21:46.569Z,8.70
2018-09-26T02:23:50.859Z,8.60
2018-09-26T02:25:54.897Z,8.40
2018-09-26T02:27:58.909Z,8.40
2018-09-26T02:30:03.256Z,8.40
2018-09-26T02:32:07.383Z,8.40
2018-09-26T02:34:11.319Z,8.40
2018-09-26T02:36:16.297Z,8.40
2018-09-26T02:38:20.304Z,8.40
2018-09-26T02:40:24.299Z,8.20
2018-09-26T02:42:28.637Z,8.20
2018-09-26T02:44:32.553Z,8.20
2018-09-26T02:46:36.571Z,8.40
2018-09-26T02:48:46.270Z,8.30
2018-09-26T02:50:50.382Z,8.30
2018-09-26T02:52:54.607Z,8.30
2018-09-26T02:54:58.904Z,8.40
2018-09-26T02:57:05.234Z,8.50
2018-09-26T02:59:09.194Z,8.40
2018-09-26T03:01:14.208Z,8.40
2018-09-26T03:03:18.196Z,8.50
2018-09-26T03:05:22.237Z,8.60
2018-09-26T03:07:26.249Z,8.80
2018-09-26T03:09:30.294Z,8.80
2018-09-26T03:11:34.409Z,8.90
2018-09-26T03:13:38.827Z,8.90
2018-09-26T03:15:44.525Z,9.00
2018-09-26T03:18:00.598Z,8.90
2018-09-26T03:20:09.096Z,8.90
2018-09-26T03:22:13.494Z,9.00
2018-09-26T03:24:19.766Z,8.90
2018-09-26T03:26:26.158Z,8.80
2018-09-26T03:28:32.451Z,8.70
2018-09-26T03:30:42.095Z,8.80
2018-09-26T03:32:50.666Z,8.70
2018-09-26T03:34:56.683Z,8.70
2018-09-26T03:37:02.243Z,8.60
2018-09-26T03:39:09.052Z,8.60
2018-09-26T03:41:16.795Z,8.60
2018-09-26T03:43:24.893Z,8.50
2018-09-26T03:45:35.500Z,8.60
2018-09-26T03:47:39.939Z,8.60
2018-09-26T03:49:44.220Z,8.60
2018-09-26T03:51:50.013Z,8.60
2018-09-26T03:53:59.688Z,8.60
2018-09-26T03:56:15.057Z,8.70
2018-09-26T03:58:22.529Z,8.70
2018-09-26T04:00:36.386Z,8.70
2018-09-26T04:02:44.580Z,8.80
2018-09-26T04:04:55.638Z,8.90
2018-09-26T04:07:01.934Z,9.00
2018-09-26T04:09:09.106Z,9.00
2018-09-26T04:11:21.285Z,9.10
2018-09-26T04:13:27.351Z,9.00
2018-09-26T04:15:44.869Z,8.90
2018-09-26T04:17:53.270Z,9.00
2018-09-26T04:19:58.384Z,8.80
2018-09-26T04:22:04.640Z,8.70
2018-09-26T04:24:11.571Z,8.60
2018-09-26T04:26:20.331Z,8.60
2018-09-26T04:28:24.617Z,8.70
2018-09-26T04:30:33.936Z,8.80
2018-09-26T04:32:40.138Z,8.80
2018-09-26T04:34:47.433Z,8.70
2018-09-26T04:36:57.501Z,8.80
2018-09-26T04:39:10.800Z,8.70
2018-09-26T04:41:25.409Z,8.60
2018-09-26T04:43:36.997Z,8.50
2018-09-26T04:45:43.679Z,8.30
2018-09-26T04:47:48.740Z,8.30
2018-09-26T04:49:55.643Z,8.20
2018-09-26T04:52:01.937Z,8.10
2018-09-26T04:54:15.672Z,8.10
2018-09-26T04:56:30.208Z,8.10
2018-09-26T04:58:39.080Z,8.10
2018-09-26T05:00:55.305Z,8.10
2018-09-26T05:03:01.723Z,8.20
2018-09-26T05:05:07.552Z,8.10
2018-09-26T05:07:14.202Z,8.20
2018-09-26T05:09:29.006Z,8.10
2018-09-26T05:11:37.064Z,8.20
2018-09-26T05:13:44.156Z,8.20
2018-09-26T05:15:55.473Z,8.20
2018-09-26T05:18:02.655Z,8.30
2018-09-26T05:20:24.138Z,8.40
2018-09-26T05:22:40.148Z,8.40
2018-09-26T05:24:45.194Z,8.50
2018-09-26T05:26:50.859Z,8.30
2018-09-26T05:28:58.192Z,8.20
2018-09-26T05:31:03.412Z,8.20
2018-09-26T05:33:10.030Z,8.30
2018-09-26T05:35:26.857Z,8.30
2018-09-26T05:37:38.304Z,8.30
2018-09-26T05:39:45.858Z,8.20
2018-09-26T05:41:52.041Z,8.30
2018-09-26T05:43:59.770Z,8.30
2018-09-26T05:46:06.355Z,8.30
2018-09-26T05:48:12.867Z,8.40
2018-09-26T05:50:26.535Z,8.40
2018-09-26T05:52:47.469Z,8.20
2018-09-26T05:55:05.439Z,8.30
2018-09-26T05:57:18.769Z,8.30
2018-09-26T05:59:53.024Z,8.30
2018-09-26T06:01:57.504Z,8.40
2018-09-26T06:04:03.038Z,8.50
2018-09-26T06:06:07.072Z,8.60
2018-09-26T06:08:13.521Z,8.70
2018-09-26T06:10:17.683Z,8.80
2018-09-26T06:12:21.699Z,8.80
2018-09-26T06:14:26.188Z,9.00
2018-09-26T06:16:30.829Z,9.20
2018-09-26T06:18:35.417Z,9.50
2018-09-26T06:20:40.181Z,9.70
2018-09-26T06:22:44.293Z,9.90
2018-09-26T06:24:48.531Z,10.00
2018-09-26T06:26:57.740Z,10.20
2018-09-26T06:29:03.290Z,10.50
2018-09-26T06:31:07.440Z,10.50
2018-09-26T06:33:12.776Z,10.50
2018-09-26T06:35:23.014Z,10.80
2018-09-26T06:37:27.259Z,11.00
2018-09-26T06:39:43.278Z,11.10
2018-09-26T06:41:48.120Z,11.10
2018-09-26T06:43:52.175Z,11.10
2018-09-26T06:45:56.407Z,10.90
2018-09-26T06:48:00.494Z,11.00
2018-09-26T06:50:04.673Z,11.30
2018-09-26T06:52:14.600Z,11.40
2018-09-26T06:54:19.241Z,11.60
2018-09-26T06:56:23.488Z,11.50
2018-09-26T06:58:28.991Z,11.50
2018-09-26T07:00:33.071Z,11.50
2018-09-26T07:02:37.761Z,11.60
2018-09-26T07:04:43.233Z,12.10
2018-09-26T07:06:48.338Z,12.30
2018-09-26T07:08:52.829Z,12.80
2018-09-26T07:10:57.167Z,13.00
2018-09-26T07:13:01.201Z,13.10
2018-09-26T07:15:05.325Z,13.30
2018-09-26T07:17:13.544Z,13.30
2018-09-26T07:19:17.541Z,13.30
2018-09-26T07:21:27.865Z,13.20
2018-09-26T07:23:34.825Z,12.90
2018-09-26T07:25:40.145Z,13.10
2018-09-26T07:27:44.212Z,13.00
2018-09-26T07:29:49.981Z,12.80
2018-09-26T07:31:55.974Z,12.90
2018-09-26T07:34:00.252Z,13.00
2018-09-26T07:36:04.360Z,13.20
2018-09-26T07:38:08.396Z,13.40
2018-09-26T07:40:12.350Z,13.50
2018-09-26T07:42:19.686Z,13.50
2018-09-26T07:44:23.842Z,13.80
2018-09-26T07:46:28.682Z,14.10
2018-09-26T07:48:33.624Z,14.50
2018-09-26T07:50:37.649Z,14.50
2018-09-26T07:52:41.840Z,14.50
2018-09-26T07:54:46.249Z,14.90
2018-09-26T07:56:50.393Z,15.20
2018-09-26T07:58:54.718Z,15.40
2018-09-26T08:00:58.781Z,15.10
2018-09-26T08:03:02.950Z,14.80
2018-09-26T08:05:08.413Z,14.40
2018-09-26T08:07:18.836Z,14.60
2018-09-26T08:09:24.254Z,14.80
2018-09-26T08:11:29.217Z,14.70
2018-09-26T08:13:33.662Z,14.60
2018-09-26T08:15:40.641Z,14.80
2018-09-26T08:17:44.692Z,15.10
2018-09-26T08:19:52.503Z,15.20
2018-09-26T08:21:57.723Z,15.40
2018-09-26T08:24:02.187Z,15.40
2018-09-26T08:26:07.088Z,15.50
2018-09-26T08:28:11.492Z,15.40
2018-09-26T08:30:16.469Z,15.80
2018-09-26T08:32:22.793Z,15.90
2018-09-26T08:34:27.023Z,16.10
2018-09-26T08:36:32.349Z,16.40
2018-09-26T08:38:38.130Z,16.60
2018-09-26T08:40:43.339Z,16.80
2018-09-26T08:42:47.485Z,16.70
2018-09-26T08:44:52.882Z,16.60
2018-09-26T08:46:56.880Z,16.80
2018-09-26T08:49:01.670Z,16.80
2018-09-26T08:51:06.755Z,16.60
2018-09-26T08:53:10.933Z,16.80
2018-09-26T08:55:15.324Z,16.90
2018-09-26T08:57:19.980Z,17.20
2018-09-26T08:59:23.996Z,17.50
2018-09-26T09:01:33.285Z,17.40
2018-09-26T09:03:39.671Z,17.30
2018-09-26T09:05:44.528Z,17.40
2018-09-26T09:07:51.440Z,17.30
2018-09-26T09:09:55.963Z,17.50
2018-09-26T09:12:02.377Z,17.60
2018-09-26T09:14:06.685Z,17.80
2018-09-26T09:16:11.573Z,17.80
2018-09-26T09:18:15.608Z,17.90
2018-09-26T09:20:24.100Z,18.30
2018-09-26T09:22:35.547Z,18.60
2018-09-26T09:24:39.603Z,18.60
2018-09-26T09:26:43.622Z,18.30
2018-09-26T09:28:48.117Z,18.90
2018-09-26T09:30:54.215Z,19.20
2018-09-26T09:33:00.201Z,19.40
2018-09-26T09:35:04.520Z,19.40
2018-09-26T09:37:08.465Z,19.60
2018-09-26T09:39:12.412Z,19.90
2018-09-26T09:41:19.850Z,19.70
2018-09-26T09:43:23.919Z,19.70
2018-09-26T09:45:28.709Z,19.60
2018-09-26T09:47:33.185Z,19.60
2018-09-26T09:49:37.303Z,19.90
2018-09-26T09:51:41.290Z,20.20
2018-09-26T09:53:47.675Z,20.20
2018-09-26T09:55:52.457Z,20.30
2018-09-26T09:57:56.407Z,20.70
2018-09-26T10:00:00.739Z,21.00
2018-09-26T10:02:05.623Z,21.10
2018-09-26T10:04:12.483Z,21.20
2018-09-26T10:06:18.552Z,21.40
2018-09-26T10:08:23.999Z,21.20
2018-09-26T10:10:28.233Z,21.00
2018-09-26T10:12:35.296Z,20.60
2018-09-26T10:14:39.692Z,21.00
2018-09-26T10:16:44.820Z,21.40
2018-09-26T10:18:50.273Z,21.30
2018-09-26T10:20:54.358Z,21.50
2018-09-26T10:22:59.755Z,21.90
2018-09-26T10:25:04.231Z,22.20
2018-09-26T10:27:08.728Z,21.80
2018-09-26T10:29:14.323Z,22.10
2018-09-26T10:31:20.114Z,22.20
2018-09-26T10:33:26.049Z,22.30
2018-09-26T10:35:31.694Z,22.30
2018-09-26T10:39:49.815Z,22.70
2018-09-26T10:41:56.055Z,22.90
2018-09-26T10:44:02.932Z,22.40
2018-09-26T10:46:07.264Z,22.60
2018-09-26T10:48:12.017Z,22.90
2018-09-26T10:50:17.518Z,23.20
2018-09-26T10:52:22.340Z,23.30
2018-09-26T10:54:38.043Z,23.30
2018-09-26T10:56:42.109Z,23.50
2018-09-26T10:58:48.906Z,23.90
2018-09-26T11:00:54.222Z,24.10
2018-09-26T11:02:58.186Z,24.10
2018-09-26T11:05:03.366Z,24.10
2018-09-26T11:07:07.389Z,24.20
2018-09-26T11:09:13.029Z,24.00
2018-09-26T11:11:18.425Z,23.90
2018-09-26T11:13:23.350Z,23.60
2018-09-26T11:15:40.934Z,23.30
2018-09-26T11:17:47.484Z,23.10
2018-09-26T11:19:53.461Z,23.10
2018-09-26T11:21:58.418Z,23.10
2018-09-26T11:24:03.502Z,23.10
2018-09-26T11:26:08.570Z,23.20
2018-09-26T11:28:17.624Z,23.30
2018-09-26T11:30:24.362Z,23.40
2018-09-26T11:32:28.324Z,23.40
2018-09-26T11:34:37.471Z,23.50
2018-09-26T11:36:41.502Z,23.80
2018-09-26T11:38:46.805Z,24.00
2018-09-26T11:40:51.297Z,24.00
2018-09-26T11:42:56.366Z,23.80
2018-09-26T11:45:01.099Z,23.80
2018-09-26T11:47:06.305Z,23.90
2018-09-26T11:49:10.502Z,24.00
2018-09-26T11:51:16.699Z,24.20
2018-09-26T11:53:21.758Z,24.40
2018-09-26T11:55:25.774Z,24.40
2018-09-26T11:57:30.214Z,24.50
2018-09-26T11:59:35.144Z,24.70
2018-09-26T12:01:41.302Z,24.70
2018-09-26T12:03:45.361Z,24.80
2018-09-26T12:05:49.354Z,24.50
2018-09-26T12:07:56.257Z,24.20
2018-09-26T12:10:01.017Z,23.90
2018-09-26T12:12:06.741Z,24.00
2018-09-26T12:14:12.538Z,24.00
2018-09-26T12:16:19.367Z,24.10
2018-09-26T12:18:27.078Z,24.30
2018-09-26T12:20:31.869Z,24.50
2018-09-26T12:22:35.976Z,24.70
2018-09-26T12:24:41.512Z,24.80
2018-09-26T12:26:46.557Z,24.90
2018-09-26T12:28:52.253Z,25.00
2018-09-26T12:30:58.554Z,25.00
2018-09-26T12:33:03.513Z,25.10
2018-09-26T12:35:08.226Z,25.20
2018-09-26T12:37:12.903Z,25.20
2018-09-26T12:39:16.890Z,25.00
2018-09-26T12:41:30.966Z,24.80
2018-09-26T12:43:36.307Z,24.80
2018-09-26T12:45:43.717Z,24.80
2018-09-26T12:47:49.067Z,24.90
2018-09-26T12:49:53.605Z,25.10
2018-09-26T12:51:59.428Z,25.10
2018-09-26T12:54:08.160Z,25.30
2018-09-26T12:56:14.037Z,25.60
2018-09-26T12:58:18.473Z,25.80
2018-09-26T13:00:25.528Z,26.00
2018-09-26T13:02:33.528Z,26.30
2018-09-26T13:04:38.294Z,26.70
2018-09-26T13:06:43.302Z,26.70
2018-09-26T13:08:48.386Z,26.30
2018-09-26T13:10:56.966Z,26.30
2018-09-26T13:13:02.249Z,26.00
2018-09-26T13:15:07.225Z,25.50
2018-09-26T13:17:12.054Z,25.20
2018-09-26T13:19:16.116Z,25.10
2018-09-26T13:21:20.205Z,25.10
2018-09-26T13:23:28.408Z,25.10
2018-09-26T13:25:33.842Z,24.90
2018-09-26T13:27:38.264Z,24.70
2018-09-26T13:29:43.507Z,24.70
2018-09-26T13:31:49.364Z,24.70
2018-09-26T13:33:54.756Z,24.50
2018-09-26T13:35:58.839Z,23.90
2018-09-26T13:38:05.343Z,23.80
2018-09-26T13:40:14.594Z,23.80
2018-09-26T13:42:31.261Z,23.70
2018-09-26T13:44:35.652Z,23.80
2018-09-26T13:46:41.493Z,23.90
2018-09-26T13:48:47.021Z,23.80
2018-09-26T13:50:51.113Z,23.90
2018-09-26T13:52:56.821Z,24.10
2018-09-26T13:55:03.940Z,24.10
2018-09-26T13:57:09.322Z,24.10
2018-09-26T13:59:13.652Z,23.90
2018-09-26T14:01:18.662Z,23.80
2018-09-26T14:03:23.328Z,23.90
2018-09-26T14:05:27.713Z,24.00
2018-09-26T14:07:31.812Z,24.00
2018-09-26T14:09:38.407Z,24.20
2018-09-26T14:11:42.768Z,24.30
2018-09-26T14:13:54.396Z,24.40
2018-09-26T14:15:58.507Z,24.50
2018-09-26T14:18:04.611Z,24.50
2018-09-26T14:20:11.484Z,24.70
2018-09-26T14:22:17.375Z,24.90
2018-09-26T14:24:29.423Z,25.00
2018-09-26T14:26:35.034Z,25.10
2018-09-26T14:28:39.052Z,25.50
2018-09-26T14:30:46.325Z,25.50
2018-09-26T14:32:51.324Z,25.50
2018-09-26T14:34:56.140Z,25.50
2018-09-26T14:37:00.715Z,25.70
2018-09-26T14:39:07.202Z,26.10
2018-09-26T14:41:12.294Z,26.20
2018-09-26T14:43:17.913Z,26.70
2018-09-26T14:45:26.496Z,27.20
2018-09-26T14:47:30.481Z,27.50
2018-09-26T14:49:36.366Z,27.70
2018-09-26T14:51:41.477Z,28.10
2018-09-26T14:53:45.581Z,28.50
2018-09-26T14:55:49.828Z,28.60
2018-09-26T14:57:55.542Z,28.60
2018-09-26T15:00:00.909Z,28.60
2018-09-26T15:02:05.806Z,28.70
2018-09-26T15:04:12.514Z,28.70
2018-09-26T15:06:19.071Z,28.60
2018-09-26T15:08:23.095Z,28.40
2018-09-26T15:10:28.450Z,28.40
2018-09-26T15:12:33.744Z,28.40
2018-09-26T15:14:37.821Z,28.40
2018-09-26T15:16:42.879Z,28.50
2018-09-26T15:18:47.380Z,28.50
2018-09-26T15:20:53.829Z,28.40
2018-09-26T15:22:58.256Z,28.50
2018-09-26T15:25:03.053Z,28.50
2018-09-26T15:27:07.072Z,28.50
2018-09-26T15:29:11.504Z,28.60
2018-09-26T15:31:15.652Z,28.60
2018-09-26T15:33:21.026Z,28.60
2018-09-26T15:35:44.486Z,28.60
2018-09-26T15:37:50.811Z,28.50
2018-09-26T15:39:54.986Z,28.50
2018-09-26T15:41:59.304Z,28.60
2018-09-26T15:44:04.178Z,28.70
2018-09-26T15:46:09.246Z,28.60
2018-09-26T15:48:18.678Z,28.40
2018-09-26T15:50:23.559Z,28.20
2018-09-26T15:52:29.664Z,28.20
2018-09-26T15:54:38.024Z,28.20
2018-09-26T15:56:43.547Z,28.00
2018-09-26T15:58:48.426Z,27.80
2018-09-26T16:00:53.713Z,27.60
2018-09-26T16:02:58.520Z,27.50
2018-09-26T16:05:03.416Z,27.50
2018-09-26T16:07:08.657Z,27.50
2018-09-26T16:09:14.022Z,27.50
2018-09-26T16:11:18.001Z,27.60
2018-09-26T16:13:23.476Z,27.60
2018-09-26T16:15:28.948Z,27.60
2018-09-26T16:17:33.858Z,27.70
2018-09-26T16:19:39.653Z,27.60
2018-09-26T16:21:45.316Z,27.20
2018-09-26T16:23:49.398Z,26.90
2018-09-26T16:25:54.904Z,26.80
2018-09-26T16:28:01.853Z,26.70
2018-09-26T16:30:07.711Z,26.40
2018-09-26T16:32:13.855Z,25.80
2018-09-26T16:34:17.847Z,25.20
2018-09-26T16:36:24.233Z,24.50
2018-09-26T16:38:28.580Z,23.80
2018-09-26T16:40:33.147Z,23.10
2018-09-26T16:42:37.587Z,22.60
2018-09-26T16:44:43.065Z,22.10
2018-09-26T16:46:47.708Z,21.80
2018-09-26T16:48:53.100Z,21.50
2018-09-26T16:50:58.412Z,21.30
2018-09-26T16:53:02.544Z,21.10
2018-09-26T16:55:06.606Z,20.90
2018-09-26T16:57:12.328Z,20.70
2018-09-26T16:59:17.204Z,20.50
2018-09-26T17:01:28.829Z,20.30
2018-09-26T17:03:33.936Z,20.20
2018-09-26T17:05:38.020Z,20.10
2018-09-26T17:07:42.503Z,20.00
2018-09-26T17:09:47.951Z,19.80
2018-09-26T17:11:54.438Z,19.70
2018-09-26T17:14:00.104Z,19.50
2018-09-26T17:16:09.642Z,19.40
2018-09-26T17:18:17.994Z,19.30
2018-09-26T17:20:23.535Z,19.30
2018-09-26T17:22:27.830Z,19.10
2018-09-26T17:24:31.860Z,19.10
2018-09-26T17:26:36.516Z,19.00
2018-09-26T17:28:42.591Z,18.90
2018-09-26T17:30:48.179Z,18.80
2018-09-26T17:32:56.284Z,18.70
2018-09-26T17:35:05.803Z,18.60
2018-09-26T17:37:09.864Z,18.50
2018-09-26T17:39:13.861Z,18.40
2018-09-26T17:41:18.840Z,18.40
2018-09-26T17:43:24.492Z,18.30
2018-09-26T17:45:31.538Z,18.20
2018-09-26T17:47:37.090Z,18.10
2018-09-26T17:49:42.716Z,18.10
2018-09-26T17:52:01.011Z,17.90
2018-09-26T17:54:08.743Z,17.90
2018-09-26T17:56:14.120Z,17.80
2018-09-26T17:58:21.946Z,17.60
2018-09-26T18:00:25.988Z,17.70
2018-09-26T18:02:31.428Z,17.70
2018-09-26T18:04:40.475Z,17.70
2018-09-26T18:06:45.994Z,17.60
2018-09-26T18:08:51.556Z,17.50
2018-09-26T18:10:58.296Z,17.20
2018-09-26T18:13:06.573Z,16.80
2018-09-26T18:15:19.461Z,16.70
2018-09-26T18:17:24.414Z,16.60
2018-09-26T18:19:28.483Z,16.60
2018-09-26T18:21:37.715Z,16.60
2018-09-26T18:23:43.852Z,16.60
2018-09-26T18:25:49.727Z,16.50
2018-09-26T18:27:55.630Z,16.70
2018-09-26T18:30:01.823Z,16.70
2018-09-26T18:32:06.785Z,16.70
2018-09-26T18:34:13.796Z,16.60
2018-09-26T18:36:19.384Z,16.60
2018-09-26T18:38:24.441Z,16.20
2018-09-26T18:40:28.481Z,15.60
2018-09-26T18:42:35.751Z,15.40
2018-09-26T18:44:41.361Z,15.10
2018-09-26T18:46:47.669Z,15.10
2018-09-26T18:48:55.919Z,15.30
2018-09-26T18:51:01.805Z,15.60
2018-09-26T18:53:09.610Z,15.70
2018-09-26T18:55:19.793Z,15.70
2018-09-26T18:57:30.112Z,15.70
2018-09-26T18:59:42.594Z,15.80
2018-09-26T19:01:51.685Z,15.70
2018-09-26T19:03:57.292Z,15.70
2018-09-26T19:06:03.406Z,15.70
2018-09-26T19:08:10.275Z,15.60
2018-09-26T19:10:17.491Z,15.50
2018-09-26T19:12:25.018Z,15.40
2018-09-26T19:14:34.518Z,14.80
2018-09-26T19:16:40.905Z,14.40
2018-09-26T19:18:49.033Z,14.20
2018-09-26T19:20:57.640Z,14.30
2018-09-26T19:23:06.392Z,14.20
2018-09-26T19:25:14.328Z,14.10
2018-09-26T19:27:23.112Z,13.60
2018-09-26T19:29:30.597Z,13.20
2018-09-26T19:31:36.457Z,12.90
2018-09-26T19:33:44.317Z,12.90
2018-09-26T19:35:51.715Z,12.90
2018-09-26T19:37:57.976Z,13.10
2018-09-26T19:40:05.467Z,13.40
2018-09-26T19:42:09.959Z,13.60
2018-09-26T19:44:14.555Z,13.50
2018-09-26T19:46:24.373Z,13.50
2018-09-26T19:48:29.837Z,13.30
2018-09-26T19:50:37.936Z,13.30
2018-09-26T19:52:47.635Z,13.50
2018-09-26T19:54:56.670Z,13.70
2018-09-26T19:57:03.321Z,14.00
2018-09-26T19:59:09.273Z,14.20
2018-09-26T20:01:15.103Z,14.40
2018-09-26T20:03:24.140Z,14.50
2018-09-26T20:05:36.635Z,14.50
2018-09-26T20:07:41.486Z,14.60
2018-09-26T20:09:45.437Z,14.60
2018-09-26T20:11:51.442Z,14.60
2018-09-26T20:13:58.470Z,14.30
2018-09-26T20:16:02.511Z,14.00
2018-09-26T20:18:09.189Z,13.90
2018-09-26T20:20:14.799Z,14.00
2018-09-26T20:22:20.150Z,14.10
2018-09-26T20:24:25.796Z,14.20
2018-09-26T20:26:30.105Z,14.40
2018-09-26T20:28:34.356Z,14.50
2018-09-26T20:30:39.669Z,14.20
2018-09-26T20:32:47.624Z,14.10
2018-09-26T20:34:54.537Z,14.10
2018-09-26T20:37:00.882Z,14.10
2018-09-26T20:39:07.525Z,14.20
2018-09-26T20:41:12.389Z,14.20
2018-09-26T20:43:17.069Z,14.20
2018-09-26T20:45:24.477Z,14.10
2018-09-26T20:47:29.675Z,14.10
2018-09-26T20:49:35.192Z,14.20
2018-09-26T20:51:42.360Z,14.20
2018-09-26T20:53:46.404Z,14.00
2018-09-26T20:55:52.369Z,13.60
2018-09-26T20:57:57.246Z,13.60
2018-09-26T21:00:05.925Z,13.80
2018-09-26T21:02:11.640Z,13.90
2018-09-26T21:04:18.358Z,14.00
2018-09-26T21:06:29.411Z,14.00
2018-09-26T21:08:36.932Z,14.10
2018-09-26T21:10:41.029Z,14.10
2018-09-26T21:12:45.997Z,14.00
2018-09-26T21:14:51.407Z,14.10
2018-09-26T21:16:57.150Z,14.00
2018-09-26T21:19:02.613Z,14.00
2018-09-26T21:21:09.061Z,14.00
2018-09-26T21:23:13.789Z,13.90
2018-09-26T21:25:19.226Z,13.90
2018-09-26T21:27:23.601Z,13.90
2018-09-26T21:29:31.380Z,13.80
2018-09-26T21:31:38.492Z,13.80
2018-09-26T21:33:43.063Z,13.70
2018-09-26T21:35:47.552Z,13.70
2018-09-26T21:37:51.573Z,13.60
2018-09-26T21:39:56.755Z,13.60
2018-09-26T21:42:00.789Z,13.60
2018-09-26T21:44:04.930Z,13.60
2018-09-26T21:46:11.306Z,13.60
2018-09-26T21:48:17.281Z,13.60
2018-09-26T21:50:22.018Z,13.60
2018-09-26T21:52:32.976Z,13.50
2018-09-26T21:54:37.528Z,13.50
2018-09-26T21:56:41.434Z,13.40
2018-09-26T21:58:45.437Z,13.40
2018-09-26T22:00:56.393Z,13.10
2018-09-26T22:03:00.413Z,12.80
2018-09-26T22:05:06.521Z,12.80
2018-09-26T22:07:10.941Z,12.80
2018-09-26T22:09:15.081Z,12.90
2018-09-26T22:11:21.605Z,12.90
2018-09-26T22:13:27.478Z,13.00
2018-09-26T22:15:31.501Z,13.00
2018-09-26T22:17:39.095Z,13.10
2018-09-26T22:19:43.077Z,13.10
2018-09-26T22:21:47.652Z,13.10
2018-09-26T22:23:55.639Z,13.10
2018-09-26T22:25:59.586Z,13.00
2018-09-26T22:28:04.527Z,13.00
2018-09-26T22:30:09.799Z,13.00
2018-09-26T22:32:13.741Z,12.90
2018-09-26T22:34:22.835Z,13.00
2018-09-26T22:36:29.065Z,13.00
2018-09-26T22:38:33.981Z,13.00
2018-09-26T22:40:38.375Z,13.00
2018-09-26T22:42:43.326Z,13.00
2018-09-26T22:44:47.796Z,13.10
2018-09-26T22:46:55.121Z,12.90
2018-09-26T22:48:59.896Z,12.80
2018-09-26T22:51:03.812Z,12.80
2018-09-26T22:53:08.862Z,12.80
2018-09-26T22:55:14.225Z,12.80
2018-09-26T22:57:18.195Z,12.90
2018-09-26T22:59:22.230Z,12.80
2018-09-26T23:01:26.219Z,12.80
2018-09-26T23:03:34.682Z,12.60
2018-09-26T23:05:39.783Z,12.60
2018-09-26T23:07:44.436Z,12.60
2018-09-26T23:09:48.385Z,12.60
2018-09-26T23:11:52.626Z,12.60
2018-09-26T23:13:58.304Z,12.60
2018-09-26T23:16:04.494Z,12.40
2018-09-26T23:18:09.811Z,12.50
2018-09-26T23:20:14.057Z,12.60
2018-09-26T23:22:21.197Z,12.60
2018-09-26T23:24:27.776Z,12.70
2018-09-26T23:26:34.064Z,12.70
2018-09-26T23:28:38.020Z,12.60
2018-09-26T23:30:43.298Z,12.50
2018-09-26T23:32:47.288Z,12.50
2018-09-26T23:34:51.260Z,12.40
2018-09-26T23:36:55.493Z,12.40
2018-09-26T23:38:59.428Z,12.30
2018-09-26T23:41:03.376Z,12.20
2018-09-26T23:43:08.826Z,11.90
2018-09-26T23:45:16.308Z,11.70
2018-09-26T23:47:20.386Z,11.80
2018-09-26T23:49:28.961Z,11.80
2018-09-26T23:51:33.333Z,11.80
2018-09-26T23:53:38.343Z,11.90
2018-09-26T23:55:42.729Z,12.00
2018-09-26T23:57:48.555Z,11.90
2018-09-26T23:59:52.517Z,11.90
